Time;durP1;ratioP1;P1;durP2;ratioP2;P2;SDS_P1;SDS_P2;PMS_P1;PMS_P2;Temp;Humidity;BMP_temperature;BMP_pressure;BME280_temperature;BME280_humidity;BME280_pressure;Samples;Min_cycle;Max_cycle;Signal;HPM_P1;HPM_P2
2024/02/02 00:01:12;;;;;;;15.13;2.28;;;;;;;5.14;100.00;102595.13;6274977;28;20053;-74
2024/02/02 00:04:13;;;;;;;24.70;3.03;;;;;;;5.17;100.00;102579.47;6274870;28;20052;-74
2024/02/02 00:07:16;;;;;;;13.63;2.40;;;;;;;5.15;100.00;102571.66;6274755;28;20552;-73
2024/02/02 00:10:17;;;;;;;13.25;2.72;;;;;;;5.26;100.00;102563.81;6274943;28;20056;-74
2024/02/02 00:13:18;;;;;;;20.75;2.85;;;;;;;5.26;100.00;102549.03;6274993;28;20135;-74
2024/02/02 00:16:20;;;;;;;17.30;3.45;;;;;;;5.17;100.00;102549.03;6274962;28;20356;-74
2024/02/02 00:19:21;;;;;;;6.68;2.10;;;;;;;5.12;100.00;102542.97;6274195;28;20041;-74
2024/02/02 00:22:24;;;;;;;13.77;2.88;;;;;;;5.19;100.00;102549.94;6274627;28;20356;-74
2024/02/02 00:25:26;;;;;;;10.55;2.13;;;;;;;5.28;100.00;102554.25;6274550;28;20056;-74
2024/02/02 00:28:28;;;;;;;20.35;3.33;;;;;;;5.22;100.00;102543.81;6274520;28;20199;-76
2024/02/02 00:31:29;;;;;;;19.85;2.63;;;;;;;5.29;100.00;102556.84;6274729;28;20049;-75
2024/02/02 00:34:30;;;;;;;17.13;3.15;;;;;;;5.25;100.00;102552.50;6274633;28;20048;-76
2024/02/02 00:37:33;;;;;;;13.52;2.88;;;;;;;5.31;100.00;102560.34;6275498;28;20448;-76
2024/02/02 00:40:34;;;;;;;19.13;3.60;;;;;;;5.31;100.00;102562.94;6279180;28;20052;-76
2024/02/02 00:43:35;;;;;;;22.80;2.95;;;;;;;5.30;100.00;102550.75;6279223;28;20333;-76
2024/02/02 00:46:37;;;;;;;15.23;2.95;;;;;;;5.22;100.00;102549.03;6278760;28;20049;-77
2024/02/02 00:49:39;;;;;;;12.90;3.00;;;;;;;5.25;100.00;102559.47;6279249;28;20041;-75
2024/02/02 00:52:42;;;;;;;12.63;2.28;;;;;;;5.30;100.00;102569.00;6278915;28;20099;-75
2024/02/02 00:55:43;;;;;;;22.73;3.00;;;;;;;5.17;100.00;102579.47;6278928;28;20060;-76
2024/02/02 00:58:44;;;;;;;19.33;2.13;;;;;;;5.24;100.00;102576.84;6278512;28;20056;-75
2024/02/02 01:01:46;;;;;;;16.80;2.75;;;;;;;5.28;100.00;102577.72;6278974;28;20459;-77
2024/02/02 01:04:47;;;;;;;11.85;2.67;;;;;;;5.25;100.00;102575.09;6278564;28;20052;-76
2024/02/02 01:07:50;;;;;;;13.93;2.30;;;;;;;5.24;100.00;102571.63;6278294;28;20053;-76
2024/02/02 01:10:51;;;;;;;15.38;2.55;;;;;;;5.29;100.00;102571.63;6278562;28;20049;-76
2024/02/02 01:13:53;;;;;;;15.25;3.00;;;;;;;5.37;100.00;102572.47;6278591;28;20056;-76
2024/02/02 01:16:54;;;;;;;7.47;2.63;;;;;;;5.33;100.00;102581.19;6278252;28;20052;-77
2024/02/02 01:19:55;;;;;;;13.75;3.33;;;;;;;5.30;100.00;102573.34;6278146;28;20072;-76
2024/02/02 01:22:58;;;;;;;15.18;2.72;;;;;;;5.35;100.00;102569.84;6278200;28;20055;-76
2024/02/02 01:25:59;;;;;;;10.70;2.95;;;;;;;5.41;100.00;102569.00;6278308;28;20433;-76
2024/02/02 01:29:01;;;;;;;15.85;3.38;;;;;;;5.46;100.00;102563.78;6277911;28;20053;-76
2024/02/02 01:32:02;;;;;;;16.33;3.30;;;;;;;5.43;100.00;102567.25;6278100;28;20045;-76
2024/02/02 01:35:04;;;;;;;24.95;3.15;;;;;;;5.40;100.00;102561.16;6278027;28;20056;-76
2024/02/02 01:38:07;;;;;;;23.90;3.45;;;;;;;5.43;100.00;102561.16;6277520;28;20068;-74
2024/02/02 01:41:08;;;;;;;20.65;3.15;;;;;;;5.44;100.00;102562.88;6277967;28;20049;-76
2024/02/02 01:44:10;;;;;;;17.88;3.17;;;;;;;5.46;100.00;102559.44;6277614;28;20060;-76
2024/02/02 01:47:11;;;;;;;19.05;4.13;;;;;;;5.43;100.00;102553.34;6270241;28;20167;-74
2024/02/02 01:50:13;;;;;;;14.90;2.63;;;;;;;5.42;100.00;102549.00;6277137;28;20437;-74
2024/02/02 01:53:16;;;;;;;17.45;3.90;;;;;;;5.45;100.00;102548.97;6277393;28;20138;-75
2024/02/02 01:56:18;;;;;;;19.45;3.05;;;;;;;5.45;100.00;102536.84;6270625;28;20300;-75
2024/02/02 01:59:19;;;;;;;15.75;3.38;;;;;;;5.45;100.00;102541.16;6276773;28;20056;-76
2024/02/02 02:02:21;;;;;;;23.00;4.68;;;;;;;5.47;100.00;102535.06;6295237;22;20037;-75
2024/02/02 02:05:22;;;;;;;20.77;3.45;;;;;;;5.54;100.00;102538.50;6274791;28;20041;-75
2024/02/02 02:08:25;;;;;;;20.50;4.18;;;;;;;5.47;100.00;102527.25;6270678;28;20041;-75
2024/02/02 02:11:26;;;;;;;16.08;3.92;;;;;;;5.45;100.00;102523.81;6273389;28;20041;-75
2024/02/02 02:14:28;;;;;;;13.52;3.45;;;;;;;5.44;100.00;102524.66;6281223;28;20045;-75
2024/02/02 02:17:29;;;;;;;13.85;3.97;;;;;;;5.48;100.00;102515.09;6293787;28;20041;-76
2024/02/02 02:20:31;;;;;;;18.88;4.15;;;;;;;5.42;100.00;102508.16;6300704;28;20045;-75
2024/02/02 02:23:37;;;;;;;16.73;3.92;;;;;;;5.44;100.00;102509.00;6292844;28;20040;-75
2024/02/02 02:26:39;;;;;;;21.23;4.32;;;;;;;5.50;100.00;102506.41;6292997;28;20044;-76
2024/02/02 02:29:41;;;;;;;14.05;3.08;;;;;;;5.52;100.00;102506.38;6299397;28;20459;-76
2024/02/02 02:32:42;;;;;;;15.07;4.18;;;;;;;5.43;100.00;102507.28;6278410;28;20052;-76
2024/02/02 02:35:44;;;;;;;8.50;3.17;;;;;;;5.42;100.00;102494.25;6291305;28;20353;-75
2024/02/02 02:38:47;;;;;;;26.65;4.13;;;;;;;5.43;100.00;102491.63;6299850;28;20052;-76
2024/02/02 02:41:48;;;;;;;15.07;3.22;;;;;;;5.46;100.00;102486.41;6292328;28;20048;-76
2024/02/02 02:44:49;;;;;;;15.80;3.38;;;;;;;5.44;100.00;102487.28;6301021;28;20433;-76
2024/02/02 02:47:51;;;;;;;15.60;3.75;;;;;;;5.44;100.00;102480.31;6301020;28;20051;-76
2024/02/02 02:50:52;;;;;;;16.52;3.58;;;;;;;5.36;100.00;102466.47;6294633;28;20047;-75
2024/02/02 02:53:55;;;;;;;24.33;4.28;;;;;;;5.36;100.00;102474.31;6285282;28;20048;-75
2024/02/02 02:56:56;;;;;;;15.77;3.50;;;;;;;5.40;100.00;102459.50;6291790;28;20060;-76
2024/02/02 02:59:57;;;;;;;13.95;3.42;;;;;;;5.40;100.00;102455.13;6297637;28;20186;-75
2024/02/02 03:02:59;;;;;;;18.27;3.95;;;;;;;5.45;100.00;102456.00;6291968;28;20052;-76
2024/02/02 03:06:00;;;;;;;13.70;3.65;;;;;;;5.48;100.00;102450.75;6289802;28;20531;-76
2024/02/02 03:09:04;;;;;;;18.95;3.00;;;;;;;5.33;100.00;102450.84;6290562;28;20053;-76
2024/02/02 03:12:06;;;;;;;28.20;3.70;;;;;;;5.40;100.00;102462.97;6293754;28;20050;-76
2024/02/02 03:15:08;;;;;;;20.75;3.78;;;;;;;5.42;100.00;102457.75;6284048;28;20080;-76
2024/02/02 03:18:10;;;;;;;18.30;4.97;;;;;;;5.45;100.00;102466.44;6290516;28;20063;-75
2024/02/02 03:21:11;;;;;;;18.92;4.90;;;;;;;5.55;100.00;102459.44;6286534;28;20045;-75
2024/02/02 03:24:14;;;;;;;15.20;4.22;;;;;;;5.50;100.00;102453.38;6295660;28;20437;-76
2024/02/02 03:27:15;;;;;;;9.55;3.42;;;;;;;5.56;100.00;102453.34;6291582;28;20472;-75
2024/02/02 03:30:17;;;;;;;11.00;3.63;;;;;;;5.57;100.00;102449.84;6300638;28;20076;-76
2024/02/02 03:33:18;;;;;;;13.13;3.78;;;;;;;5.57;100.00;102449.84;6299915;28;20072;-76
2024/02/02 03:36:20;;;;;;;13.98;3.10;;;;;;;5.58;100.00;102446.38;6292038;28;20055;-76
2024/02/02 03:39:22;;;;;;;15.32;5.55;;;;;;;5.58;100.00;102447.22;6299840;28;20045;-74
2024/02/02 03:42:24;;;;;;;25.92;4.07;;;;;;;5.64;100.00;102446.34;6300019;28;20055;-76
2024/02/02 03:45:25;;;;;;;17.70;3.38;;;;;;;5.60;100.00;102442.88;6296777;28;20362;-75
2024/02/02 03:48:27;;;;;;;14.93;4.43;;;;;;;5.68;100.00;102435.03;6291131;28;20052;-75
2024/02/02 03:51:28;;;;;;;14.00;3.92;;;;;;;5.68;100.00;102437.63;6300163;28;20060;-76
2024/02/02 03:54:30;;;;;;;18.60;4.43;;;;;;;5.67;100.00;102435.00;6299821;28;20048;-75
2024/02/02 03:57:32;;;;;;;15.30;4.53;;;;;;;5.64;100.00;102450.69;6299756;28;20052;-75
2024/02/02 04:00:33;;;;;;;24.08;3.97;;;;;;;5.64;100.00;102428.09;6291412;28;20045;-76
2024/02/02 04:03:34;;;;;;;16.60;4.32;;;;;;;5.78;100.00;102430.63;6299866;28;20053;-76
2024/02/02 04:06:36;;;;;;;22.73;5.63;;;;;;;5.76;100.00;102434.97;6299426;28;20055;-75
2024/02/02 04:09:39;;;;;;;20.10;4.47;;;;;;;5.78;100.00;102430.63;6299926;28;20312;-76
2024/02/02 04:12:40;;;;;;;11.45;3.85;;;;;;;5.97;100.00;102437.47;6303508;28;20052;-76
2024/02/02 04:15:42;;;;;;;22.40;4.22;;;;;;;5.93;100.00;102419.22;6304825;28;20045;-75
2024/02/02 04:18:43;;;;;;;25.13;5.60;;;;;;;5.87;100.00;102406.22;6304476;28;20052;-76
2024/02/02 04:21:44;;;;;;;17.35;4.97;;;;;;;5.95;100.00;102412.25;6304461;28;20083;-76
2024/02/02 04:24:47;;;;;;;28.25;4.82;;;;;;;5.97;100.00;102407.91;6304346;28;20376;-76
2024/02/02 04:27:48;;;;;;;29.17;5.25;;;;;;;5.90;100.00;102403.56;6295681;28;20036;-76
2024/02/02 04:30:50;;;;;;;13.77;5.38;;;;;;;5.99;100.00;102400.91;6304576;28;20348;-76
2024/02/02 04:33:51;;;;;;;19.45;4.55;;;;;;;5.95;100.00;102396.59;6304243;28;20060;-76
2024/02/02 04:36:52;;;;;;;23.02;4.05;;;;;;;5.99;100.00;102388.72;6303831;28;20345;-76
2024/02/02 04:39:55;;;;;;;23.65;4.57;;;;;;;6.02;100.00;102378.28;6304457;28;20056;-75
2024/02/02 04:42:57;;;;;;;18.77;4.05;;;;;;;5.92;100.00;102376.63;6303844;28;20342;-76
2024/02/02 04:45:58;;;;;;;24.88;4.63;;;;;;;5.98;100.00;102376.56;6304194;28;20360;-75
2024/02/02 04:48:59;;;;;;;16.42;4.25;;;;;;;6.02;100.00;102366.97;6303463;28;20051;-76
2024/02/02 04:52:01;;;;;;;21.55;4.75;;;;;;;6.04;100.00;102373.94;6304056;28;20045;-76
2024/02/02 04:55:04;;;;;;;13.77;5.28;;;;;;;6.14;100.00;102373.84;6303737;28;20045;-75
2024/02/02 04:58:06;;;;;;;25.02;4.63;;;;;;;6.03;100.00;102377.38;6303873;28;20052;-76
2024/02/02 05:01:07;;;;;;;16.90;3.83;;;;;;;6.16;100.00;102362.50;6303705;28;20129;-76
2024/02/02 05:04:08;;;;;;;17.75;3.92;;;;;;;6.13;100.00;102352.06;6304117;28;20044;-75
2024/02/02 05:07:10;;;;;;;16.85;4.15;;;;;;;6.18;100.00;102331.19;6303422;28;20060;-76
2024/02/02 05:10:13;;;;;;;18.33;5.30;;;;;;;6.24;100.00;102342.41;6304400;28;20060;-76
2024/02/02 05:13:14;;;;;;;8.98;4.25;;;;;;;6.21;100.00;102326.78;6304174;28;20048;-76
2024/02/02 05:16:15;;;;;;;16.38;4.30;;;;;;;6.20;100.00;102337.25;6295645;28;20045;-75
2024/02/02 05:19:17;;;;;;;19.13;4.20;;;;;;;6.26;100.00;102321.50;6303598;28;20048;-76
2024/02/02 05:22:18;;;;;;;8.98;3.80;;;;;;;6.17;100.00;102308.53;6302659;28;20444;-76
2024/02/02 05:25:21;;;;;;;15.35;4.20;;;;;;;6.17;100.00;102319.84;6302971;28;20044;-75
2024/02/02 05:28:22;;;;;;;11.45;3.67;;;;;;;6.14;100.00;102325.13;6302378;28;20068;-75
2024/02/02 05:31:23;;;;;;;22.27;4.90;;;;;;;6.13;100.00;102333.81;6303117;28;20050;-75
2024/02/02 05:34:25;;;;;;;20.10;4.47;;;;;;;6.21;100.00;102328.53;6302729;28;20352;-76
2024/02/02 05:37:26;;;;;;;8.65;3.70;;;;;;;6.21;100.00;102347.66;6302373;28;20049;-75
2024/02/02 05:40:29;;;;;;;18.15;3.35;;;;;;;6.21;100.00;102357.22;6302323;28;20190;-75
2024/02/02 05:43:30;;;;;;;15.73;3.80;;;;;;;6.27;100.00;102358.06;6302214;28;20056;-76
2024/02/02 05:46:32;;;;;;;12.07;3.30;;;;;;;6.24;100.00;102346.78;6295760;28;20049;-76
2024/02/02 05:49:33;;;;;;;10.38;4.28;;;;;;;6.25;100.00;102345.88;6294695;28;20449;-76
2024/02/02 05:52:34;;;;;;;14.70;3.95;;;;;;;6.19;100.00;102325.06;6293978;28;20569;-76
2024/02/02 05:55:37;;;;;;;8.00;3.03;;;;;;;6.23;100.00;102314.59;6298674;28;20037;-75
2024/02/02 05:58:38;;;;;;;22.20;5.05;;;;;;;6.29;100.00;102300.59;6301703;28;20432;-75
2024/02/02 06:01:39;;;;;;;15.25;4.50;;;;;;;6.23;100.00;102283.25;6298578;28;20052;-76
2024/02/02 06:04:41;;;;;;;18.63;4.03;;;;;;;6.33;100.00;102286.63;6298272;28;20068;-75
2024/02/02 06:07:42;;;;;;;12.18;3.13;;;;;;;6.37;100.00;102271.81;6301061;28;20348;-76
2024/02/02 06:10:45;;;;;;;13.68;3.65;;;;;;;6.40;100.00;102277.84;6301935;28;20044;-76
2024/02/02 06:13:46;;;;;;;13.75;3.60;;;;;;;6.35;100.00;102261.34;6301965;28;20078;-76
2024/02/02 06:16:48;;;;;;;19.48;4.28;;;;;;;6.31;100.00;102249.22;6301742;28;20049;-75
2024/02/02 06:19:49;;;;;;;19.70;3.65;;;;;;;6.35;100.00;102256.13;6301895;28;20045;-75
2024/02/02 06:22:50;;;;;;;16.17;3.65;;;;;;;6.31;100.00;102252.72;6301587;28;20045;-75
2024/02/02 06:25:53;;;;;;;11.98;3.92;;;;;;;6.27;100.00;102264.06;6301826;28;20364;-75
2024/02/02 06:28:54;;;;;;;26.80;4.57;;;;;;;6.38;100.00;102255.25;6301340;28;20052;-75
2024/02/02 06:31:57;;;;;;;10.90;3.80;;;;;;;6.34;100.00;102259.63;6296476;28;20044;-76
2024/02/02 06:34:59;;;;;;;12.88;3.83;;;;;;;6.31;100.00;102259.66;6292938;28;20131;-75
2024/02/02 06:38:00;;;;;;;15.25;4.60;;;;;;;6.24;100.00;102264.09;6301103;28;20059;-75
2024/02/02 06:41:03;;;;;;;13.38;4.28;;;;;;;6.34;100.00;102257.88;6301215;28;20048;-76
2024/02/02 06:44:05;;;;;;;17.50;4.65;;;;;;;6.33;100.00;102257.91;6301204;28;20452;-75
2024/02/02 06:47:06;;;;;;;19.17;4.65;;;;;;;6.37;100.00;102261.38;6300738;28;20452;-75
2024/02/02 06:50:09;;;;;;;12.05;4.85;;;;;;;6.35;100.00;102249.16;6301356;28;20048;-75
2024/02/02 06:53:10;;;;;;;25.48;5.65;;;;;;;6.36;100.00;102237.00;6300972;28;20052;-75
2024/02/02 06:56:31;;;;;;;20.08;5.80;;;;;;;6.35;100.00;102237.84;6299066;28;20052;-76
2024/02/02 06:59:32;;;;;;;12.18;4.57;;;;;;;6.29;100.00;102256.22;6297218;28;20052;-75
2024/02/02 07:02:34;;;;;;;20.20;6.13;;;;;;;6.34;100.00;102241.34;6300788;28;20356;-76
2024/02/02 07:05:35;;;;;;;21.30;5.50;;;;;;;6.43;100.00;102243.88;6300674;28;20059;-76
2024/02/02 07:08:36;;;;;;;30.77;6.78;;;;;;;6.43;100.00;102243.00;6300192;28;20433;-76
2024/02/02 07:11:55;;;;;;;16.83;5.65;;;;;;;6.40;100.00;102229.97;6300812;28;20044;-76
2024/02/02 07:15:02;;;;;;;20.88;6.03;;;;;;;6.37;100.00;102235.25;6300524;28;20364;-76
2024/02/02 07:18:04;;;;;;;22.27;6.35;;;;;;;6.44;100.00;102226.44;6300177;28;20348;-75
2024/02/02 07:21:07;;;;;;;20.52;5.75;;;;;;;6.34;100.00;102231.78;6300317;28;20041;-75
2024/02/02 07:24:09;;;;;;;17.88;5.90;;;;;;;6.41;100.00;102236.94;6300421;28;20186;-75
2024/02/02 07:27:32;;;;;;;29.63;6.97;;;;;;;6.43;100.00;102230.81;6300194;28;20052;-75
2024/02/02 07:30:53;;;;;;;26.42;7.63;;;;;;;6.34;100.00;102231.78;6300271;28;20349;-75
2024/02/02 07:33:54;;;;;;;25.92;7.45;;;;;;;6.39;100.00;102223.03;6300647;28;20135;-75
2024/02/02 07:36:55;;;;;;;26.73;8.48;;;;;;;6.41;100.00;102226.50;6299930;28;20052;-75
2024/02/02 07:39:59;;;;;;;22.60;7.60;;;;;;;6.34;100.00;102225.69;6298407;28;20435;-75
2024/02/02 07:43:01;;;;;;;28.90;7.57;;;;;;;6.37;100.00;102233.50;6291269;28;20387;-75
2024/02/02 07:46:04;;;;;;;25.33;6.60;;;;;;;6.50;100.00;102223.78;6292139;28;20048;-76
2024/02/02 07:49:05;;;;;;;14.95;6.43;;;;;;;6.58;100.00;102224.50;6297208;28;20052;-76
2024/02/02 07:52:06;;;;;;;27.15;7.75;;;;;;;6.56;100.00;102221.94;6291680;28;20059;-75
2024/02/02 07:55:08;;;;;;;23.40;7.32;;;;;;;6.78;100.00;102224.28;6299844;28;20045;-75
2024/02/02 07:58:10;;;;;;;22.10;6.88;;;;;;;6.70;100.00;102226.13;6291201;28;20052;-75
2024/02/02 08:01:12;;;;;;;24.42;7.30;;;;;;;6.69;100.00;102227.00;6298856;28;20353;-75
2024/02/02 08:04:14;;;;;;;20.10;6.32;;;;;;;6.65;100.00;102225.31;6285096;28;20361;-75
2024/02/02 08:07:15;;;;;;;20.58;6.53;;;;;;;6.64;100.00;102228.81;6289381;28;20103;-75
2024/02/02 08:10:17;;;;;;;16.48;6.22;;;;;;;6.67;100.00;102223.53;6275000;28;20059;-76
2024/02/02 08:13:19;;;;;;;18.23;6.43;;;;;;;6.53;100.00;102221.09;6274596;28;20340;-75
2024/02/02 08:16:21;;;;;;;15.90;6.10;;;;;;;6.68;100.00;102218.31;6286543;28;20056;-77
2024/02/02 08:19:22;;;;;;;20.02;6.20;;;;;;;6.64;100.00;102215.75;6295247;28;20049;-76
2024/02/02 08:22:24;;;;;;;25.13;6.75;;;;;;;6.63;100.00;102198.34;6296774;28;20437;-77
2024/02/02 08:25:25;;;;;;;24.05;7.18;;;;;;;6.75;100.00;102191.19;6284216;28;20567;-76
2024/02/02 08:28:28;;;;;;;20.08;6.65;;;;;;;6.61;100.00;102180.09;6291445;28;20045;-75
2024/02/02 08:31:29;;;;;;;22.77;6.53;;;;;;;6.75;100.00;102200.78;6282502;28;20048;-75
2024/02/02 08:34:31;;;;;;;17.05;5.65;;;;;;;6.80;100.00;102185.91;6295741;28;20167;-75
2024/02/02 08:37:33;;;;;;;21.10;6.20;;;;;;;6.90;100.00;102177.03;6290540;28;20341;-76
2024/02/02 08:40:39;;;;;;;24.95;7.18;;;;;;;6.92;100.00;102164.81;6290964;28;20131;-75
2024/02/02 08:43:42;;;;;;;27.13;6.60;;;;;;;7.01;100.00;102166.44;6298952;28;20044;-76
2024/02/02 08:46:45;;;;;;;17.83;6.20;;;;;;;6.89;100.00;102158.78;6299270;28;20063;-76
2024/02/02 08:49:53;;;;;;;20.30;5.85;;;;;;;6.89;100.00;102162.25;6291037;28;20464;-75
2024/02/02 08:52:57;;;;;;;20.25;6.05;;;;;;;6.86;100.00;102160.56;6296628;28;20049;-75
2024/02/02 08:56:01;;;;;;;20.98;6.13;;;;;;;6.88;100.00;102155.31;6297878;28;20052;-75
2024/02/02 08:59:29;;;;;;;16.92;5.22;;;;;;;6.66;100.00;102159.97;6292449;28;20151;-75
2024/02/02 09:02:51;;;;;;;22.10;6.50;;;;;;;6.95;100.00;102169.13;6295057;28;20044;-75
2024/02/02 09:05:54;;;;;;;29.58;7.05;;;;;;;6.88;100.00;102155.31;6293312;28;20055;-75
2024/02/02 09:08:55;;;;;;;30.90;7.25;;;;;;;6.88;100.00;102152.69;6294639;28;20052;-75
2024/02/02 09:11:56;;;;;;;15.27;6.38;;;;;;;7.01;100.00;102148.16;6295010;28;20072;-74
2024/02/02 09:15:00;;;;;;;16.42;6.70;;;;;;;6.95;100.00;102148.22;6298351;28;20056;-75
2024/02/02 09:18:01;;;;;;;18.83;6.13;;;;;;;7.09;100.00;102156.72;6290394;28;20059;-74
2024/02/02 09:21:04;;;;;;;22.67;6.38;;;;;;;6.97;100.00;102138.63;6295738;28;20370;-74
2024/02/02 09:24:13;;;;;;;19.00;5.90;;;;;;;6.91;100.00;102129.13;6293176;28;20048;-76
2024/02/02 09:27:16;;;;;;;13.95;6.10;;;;;;;6.90;100.00;102122.16;6290704;28;20052;-75
2024/02/02 09:30:21;;;;;;;20.92;6.65;;;;;;;6.91;100.00;102123.06;6290259;28;20363;-76
2024/02/02 09:33:47;;;;;;;19.90;6.53;;;;;;;6.91;100.00;102150.03;6294578;28;20044;-75
2024/02/02 09:36:48;;;;;;;15.15;5.93;;;;;;;7.02;100.00;102134.19;6292268;28;20052;-76
2024/02/02 09:39:52;;;;;;;24.33;6.65;;;;;;;7.04;100.00;102119.31;6294681;28;20052;-76
2024/02/02 09:43:05;;;;;;;18.83;6.03;;;;;;;7.16;100.00;102115.66;6281365;28;20052;-74
2024/02/02 09:46:20;;;;;;;17.20;6.05;;;;;;;7.01;100.00;102119.41;6289363;28;20048;-77
2024/02/02 09:49:29;;;;;;;11.50;5.25;;;;;;;6.98;100.00;102115.06;6287371;28;20131;-75
2024/02/02 09:52:39;;;;;;;31.98;6.65;;;;;;;7.02;100.00;102103.69;6283994;28;20487;-73
2024/02/02 09:55:50;;;;;;;18.10;5.78;;;;;;;7.04;100.00;102119.31;6298851;28;20349;-74
2024/02/02 09:58:56;;;;;;;20.48;6.10;;;;;;;7.08;100.00;102124.47;6290341;28;20064;-74
2024/02/02 10:02:20;;;;;;;20.50;6.18;;;;;;;7.14;100.00;102123.53;6292654;28;20077;-73
2024/02/02 10:05:33;;;;;;;18.98;6.55;;;;;;;7.07;100.00;102116.66;6296162;28;20052;-75
2024/02/02 10:08:52;;;;;;;16.58;6.22;;;;;;;7.06;100.00;102128.88;6294703;28;20044;-75
2024/02/02 10:12:11;;;;;;;20.42;7.30;;;;;;;7.22;100.00;102123.38;6291336;28;20048;-74
2024/02/02 10:15:21;;;;;;;;;;;;;;;7.17;100.00;102128.69;6294994;28;20045;-75
2024/02/02 10:18:42;;;;;;;24.17;6.60;;;;;;;7.15;100.00;102112.19;6294502;28;19928;-74
2024/02/02 10:21:56;;;;;;;25.33;7.10;;;;;;;7.16;100.00;102120.88;6300955;28;20353;-75
2024/02/02 10:25:09;;;;;;;32.15;6.32;;;;;;;7.22;100.00;102112.91;6286459;28;20060;-74
2024/02/02 10:28:26;;;;;;;18.83;6.82;;;;;;;7.21;100.00;102109.44;6293073;28;20048;-74
2024/02/02 10:31:41;;;;;;;26.92;6.40;;;;;;;7.29;100.00;102114.56;6293456;28;20053;-75
2024/02/02 10:34:57;;;;;;;24.02;6.13;;;;;;;7.22;100.00;102108.59;6296877;28;20442;-75
2024/02/02 10:38:10;;;;;;;21.10;6.68;;;;;;;7.12;100.00;102120.06;6298875;28;20055;-74
2024/02/02 10:41:19;;;;;;;26.95;6.22;;;;;;;7.24;100.00;102112.03;6294211;28;20128;-74
2024/02/02 10:44:27;;;;;;;;;;;;;;;7.16;100.00;102113.03;6300051;28;20045;-74
2024/02/02 10:47:43;;;;;;;22.60;6.65;;;;;;;7.30;100.00;102096.22;6300200;28;19927;-75
2024/02/02 10:50:55;;;;;;;17.50;6.05;;;;;;;7.26;100.00;102091.06;6290452;28;20055;-75
2024/02/02 10:54:09;;;;;;;15.77;6.07;;;;;;;7.34;100.00;102084.81;6300742;28;20345;-75
2024/02/02 10:57:21;;;;;;;24.25;6.90;;;;;;;7.24;100.00;102077.16;6296040;28;20052;-75
2024/02/02 11:00:23;;;;;;;17.42;6.43;;;;;;;7.28;100.00;102079.69;6296560;28;20471;-76
2024/02/02 11:03:33;;;;;;;17.27;6.18;;;;;;;7.26;100.00;102063.16;6294703;28;20436;-75
2024/02/02 11:06:43;;;;;;;23.52;8.52;;;;;;;7.24;100.00;102054.50;6294817;28;20452;-76
2024/02/02 11:09:53;;;;;;;22.77;6.28;;;;;;;7.30;100.00;102038.69;6289561;28;20056;-76
2024/02/02 11:13:04;;;;;;;16.77;6.70;;;;;;;7.45;100.00;102041.88;6294719;28;20044;-75
2024/02/02 11:16:25;;;;;;;16.38;6.38;;;;;;;7.33;100.00;102029.94;6295556;28;20049;-75
2024/02/02 11:19:43;;;;;;;21.17;6.53;;;;;;;7.40;100.00;102035.91;6292229;28;20048;-75
2024/02/02 11:22:54;;;;;;;22.95;6.88;;;;;;;7.35;100.00;102046.44;6299563;28;20036;-74
2024/02/02 11:26:05;;;;;;;35.33;7.95;;;;;;;7.50;100.00;102040.94;6292237;28;20048;-75
2024/02/02 11:29:15;;;;;;;17.30;6.32;;;;;;;7.46;100.00;102047.13;6299118;28;20052;-75
2024/02/02 11:32:39;;;;;;;18.10;6.28;;;;;;;7.46;100.00;102046.25;6299529;28;20055;-74
2024/02/02 11:35:53;;;;;;;15.27;6.97;;;;;;;7.52;100.00;102040.88;6291591;28;20045;-76
2024/02/02 11:39:09;;;;;;;23.25;7.15;;;;;;;7.58;100.00;102038.16;6298344;28;20322;-75
2024/02/02 11:42:12;;;;;;;16.48;7.00;;;;;;;7.60;100.00;102025.91;6288864;28;20057;-75
2024/02/02 11:45:20;;;;;;;19.30;7.40;;;;;;;7.55;100.00;102023.38;6294184;28;20052;-76
2024/02/02 11:48:26;;;;;;;26.42;7.80;;;;;;;7.72;100.00;102019.53;6291446;28;20060;-75
2024/02/02 11:51:29;;;;;;;20.98;7.95;;;;;;;7.69;100.00;102027.47;6294854;28;20052;-74
2024/02/02 11:54:37;;;;;;;24.33;8.15;;;;;;;7.67;100.00;102014.41;6300011;28;20455;-74
2024/02/02 11:57:44;;;;;;;18.60;7.40;;;;;;;7.61;100.00;102022.41;6299301;28;20127;-74
2024/02/02 12:01:03;;;;;;;18.55;7.95;;;;;;;7.73;100.00;102009.06;6291585;28;20129;-75
2024/02/02 12:04:19;;;;;;;19.73;6.90;;;;;;;7.72;100.00;102001.22;6299180;28;20058;-75
2024/02/02 12:07:32;;;;;;;28.20;7.38;;;;;;;7.68;100.00;101996.97;6299510;28;20349;-75
2024/02/02 12:10:40;;;;;;;19.10;7.80;;;;;;;7.80;100.00;101999.31;6299794;28;20372;-76
2024/02/02 12:13:43;;;;;;;19.83;7.55;;;;;;;7.87;100.00;101995.69;6291789;28;20052;-75
2024/02/02 12:16:47;;;;;;;29.35;7.38;;;;;;;7.77;100.00;101992.41;6296402;28;20053;-74
2024/02/02 12:19:50;;;;;;;24.83;7.85;;;;;;;7.95;100.00;102004.22;6291424;28;20044;-74
2024/02/02 12:22:52;;;;;;;27.00;7.72;;;;;;;7.97;100.00;101986.72;6299207;28;20060;-76
2024/02/02 12:25:55;;;;;;;20.85;8.18;;;;;;;7.91;100.00;101983.41;6293091;28;20441;-75
2024/02/02 12:28:56;;;;;;;25.23;7.72;;;;;;;8.00;100.00;101977.97;6298104;28;20052;-75
2024/02/02 12:31:57;;;;;;;19.58;7.32;;;;;;;8.01;100.00;101966.56;6300447;28;20093;-75
2024/02/02 12:34:59;;;;;;;19.45;7.57;;;;;;;7.87;100.00;101957.28;6304144;28;20055;-74
2024/02/02 12:38:00;;;;;;;18.27;6.55;;;;;;;7.99;100.00;101963.97;6304048;28;20049;-75
2024/02/02 12:41:03;;;;;;;19.75;7.70;;;;;;;7.97;100.00;101955.31;6304050;28;20352;-75
2024/02/02 12:44:07;;;;;;;20.30;7.65;;;;;;;7.96;100.00;101966.69;6295444;28;20045;-75
2024/02/02 12:47:08;;;;;;;23.60;8.50;;;;;;;8.05;100.00;101960.38;6303708;28;20056;-75
2024/02/02 12:50:14;;;;;;;28.23;8.77;;;;;;;8.03;100.00;101956.91;6303915;28;20051;-75
2024/02/02 12:53:16;;;;;;;31.35;9.48;;;;;;;8.04;100.00;101951.66;6294622;28;20045;-74
2024/02/02 12:56:19;;;;;;;21.08;8.38;;;;;;;8.05;100.00;101934.19;6295738;28;20048;-74
2024/02/02 12:59:20;;;;;;;18.65;7.50;;;;;;;8.14;100.00;101924.38;6297476;28;20052;-75
2024/02/02 13:02:22;;;;;;;25.00;8.35;;;;;;;8.04;100.00;101925.50;6294112;28;20075;-75
2024/02/02 13:05:26;;;;;;;23.48;8.65;;;;;;;8.10;100.00;101912.25;6295219;28;20132;-76
2024/02/02 13:08:30;;;;;;;26.95;8.68;;;;;;;8.23;100.00;101911.94;6293409;28;20045;-75
2024/02/02 13:11:33;;;;;;;23.83;8.77;;;;;;;8.16;100.00;101910.38;6290474;28;20175;-75
2024/02/02 13:14:36;;;;;;;25.70;8.52;;;;;;;8.29;100.00;101896.94;6302304;28;20056;-75
2024/02/02 13:17:38;;;;;;;17.85;7.72;;;;;;;8.23;100.00;101906.72;6294820;28;20171;-75
2024/02/02 13:20:41;;;;;;;20.88;9.13;;;;;;;8.27;100.00;101905.75;6301784;28;20048;-73
2024/02/02 13:23:43;;;;;;;31.42;8.50;;;;;;;8.31;100.00;101907.34;6297510;28;20326;-75
2024/02/02 13:26:50;;;;;;;24.10;7.88;;;;;;;8.24;100.00;101903.19;6293388;28;20052;-76
2024/02/02 13:29:56;;;;;;;23.23;8.55;;;;;;;8.28;100.00;101910.94;6303013;28;20079;-74
2024/02/02 13:33:03;;;;;;;33.63;9.63;;;;;;;8.21;100.00;101917.22;6295958;28;20055;-74
2024/02/02 13:36:10;;;;;;;23.23;9.27;;;;;;;8.37;100.00;101915.13;6302751;28;20048;-75
2024/02/02 13:39:18;;;;;;;21.73;8.02;;;;;;;8.43;100.00;101920.19;6295046;28;20063;-74
2024/02/02 13:42:22;;;;;;;24.13;8.90;;;;;;;8.46;100.00;101921.88;6295099;28;20054;-76
2024/02/02 13:45:25;;;;;;;21.60;8.48;;;;;;;8.50;100.00;101926.16;6298625;28;20049;-75
2024/02/02 13:48:35;;;;;;;27.80;10.82;;;;;;;8.38;100.00;101915.06;6297878;28;20044;-75
2024/02/02 13:51:38;;;;;;;33.50;9.10;;;;;;;8.51;100.00;101910.38;6293397;28;20463;-75
2024/02/02 13:54:41;;;;;;;29.00;8.98;;;;;;;8.48;100.00;101917.44;6294417;28;20041;-76
2024/02/02 13:57:45;;;;;;;27.20;8.90;;;;;;;8.57;100.00;101909.34;6300767;28;20040;-74
2024/02/02 14:00:46;;;;;;;27.02;9.15;;;;;;;8.50;100.00;101908.66;6302315;28;20048;-75
2024/02/02 14:03:51;;;;;;;20.10;8.82;;;;;;;8.49;100.00;101914.78;6297267;28;20049;-75
2024/02/02 14:06:53;;;;;;;26.92;8.55;;;;;;;8.46;100.00;101906.16;6299526;28;20075;-75